Wetterdaten für den Flughafen Lübeck Blankensee


ADDS - METARS form results Aviation Digital Data Service (ADDS) Output produced by METARs form (0736 UTC 23 February 2019)
found at http://www.aviationweather.gov/metar/data/
 
EDDH 230720Z 13007KT CAVOK M00/M05 Q1042 NOSIG
TAF EDDH 230500Z 2306/2412 14007KT CAVOK BECMG 2321/2324 VRB03KT

Nord: Hamburg, Lübeck
Ost: Schwerin, Rostock
Süd: Hannover
West: Bremen, Nordhloz

Copyright © 2016 Flugschule Hohensee